Time,TemperatureF,DewpointF,PressureIn,WindDirection,WindDirectionDegrees,WindSpeedMPH,WindSpeedGustMPH,Humidity,HourlyPrecipIn,Conditions,Clouds,dailyrainin,SolarRadiationWatts/m^2,SoftwareType,DateUTC
2013-02-19 09:42:00,62.0,51.7,30.15,North,349,2.0,2.0,69,0.00,,,0.00,248,Wunderground v.1.15,2013-02-19 14:42:00,
2013-02-19 09:43:00,62.0,51.7,30.15,NE,44,3.0,4.0,69,0.00,,,0.00,253,Wunderground v.1.15,2013-02-19 14:43:00,
2013-02-19 09:48:00,62.3,52.0,30.15,NW,307,7.0,11.0,69,0.00,,,0.00,271,Wunderground v.1.15,2013-02-19 14:48:00,
2013-02-19 09:53:00,62.5,51.8,30.15,NW,304,2.0,8.0,68,0.00,,,0.00,209,Wunderground v.1.15,2013-02-19 14:53:00,
2013-02-19 09:58:00,62.7,51.6,30.15,North,355,5.0,13.0,67,0.00,,,0.00,301,Wunderground v.1.15,2013-02-19 14:58:00,
2013-02-19 10:07:00,63.4,51.4,30.15,NNW,341,8.0,8.0,65,0.00,,,0.00,527,Wunderground v.1.15,2013-02-19 15:07:00,
2013-02-19 10:12:00,63.8,51.8,30.14,NNW,329,10.0,10.0,65,0.00,,,0.00,360,Wunderground v.1.15,2013-02-19 15:12:00,
2013-02-19 11:54:00,64.1,52.1,30.11,NNW,337,11.0,11.0,65,0.00,,,0.00,364,Wunderground v.1.15,2013-02-19 16:54:00,
2013-02-19 11:59:00,64.5,52.0,30.10,NNW,338,10.0,14.0,64,0.00,,,0.00,241,Wunderground v.1.15,2013-02-19 16:59:00,
2013-02-19 12:06:00,64.4,52.0,30.10,North,351,3.0,6.0,64,0.00,,,0.00,213,Wunderground v.1.15,2013-02-19 17:06:00,
2013-02-19 12:11:00,64.3,51.9,30.10,North,355,6.0,6.0,64,0.00,,,0.00,251,Wunderground v.1.15,2013-02-19 17:11:00,
2013-02-19 12:16:00,64.2,52.2,30.09,WNW,301,13.0,13.0,65,0.00,,,0.00,146,Wunderground v.1.15,2013-02-19 17:16:00,
2013-02-19 12:21:00,64.0,52.0,30.09,North,349,10.0,10.0,65,0.00,,,0.00,141,Wunderground v.1.15,2013-02-19 17:21:00,
2013-02-19 12:26:00,63.8,51.8,30.08,West,279,12.0,14.0,65,0.00,,,0.00,167,Wunderground v.1.15,2013-02-19 17:26:00,
2013-02-19 12:31:00,63.5,53.1,30.08,NW,322,3.0,9.0,69,0.00,,,0.00,141,Wunderground v.1.15,2013-02-19 17:31:00,
2013-02-19 12:36:00,62.9,53.0,30.07,NNW,334,11.0,17.0,70,0.00,,,0.00,128,Wunderground v.1.15,2013-02-19 17:36:00,
2013-02-19 12:41:00,62.7,53.2,30.07,NNW,334,7.0,10.0,71,0.00,,,0.00,144,Wunderground v.1.15,2013-02-19 17:41:00,
2013-02-19 12:46:00,62.2,53.4,30.07,NNW,327,9.0,15.0,73,0.00,,,0.00,193,Wunderground v.1.15,2013-02-19 17:46:00,
2013-02-19 12:51:00,62.2,53.4,30.07,NW,323,13.0,13.0,73,0.00,,,0.00,193,Wunderground v.1.15,2013-02-19 17:51:00,
2013-02-19 12:56:00,62.3,53.9,30.07,North,9,5.0,14.0,74,0.00,,,0.00,118,Wunderground v.1.15,2013-02-19 17:56:00,
2013-02-19 13:07:00,61.9,53.5,30.06,North,360,7.0,7.0,74,0.00,,,0.00,74,Wunderground v.1.15,2013-02-19 18:07:00,
2013-02-19 13:12:00,61.5,53.9,30.07,NW,321,7.0,14.0,76,0.00,,,0.01,100,Wunderground v.1.15,2013-02-19 18:12:00,
2013-02-19 13:17:00,60.8,54.2,30.07,NNW,336,4.0,16.0,79,0.10,,,0.02,67,Wunderground v.1.15,2013-02-19 18:17:00,
2013-02-19 13:22:00,60.2,54.3,30.06,NNW,329,7.0,10.0,81,0.10,,,0.02,63,Wunderground v.1.15,2013-02-19 18:22:00,
2013-02-19 13:27:00,59.6,54.4,30.06,NNW,337,6.0,13.0,83,0.07,,,0.03,49,Wunderground v.1.15,2013-02-19 18:27:00,
2013-02-19 13:32:00,59.2,54.7,30.06,North,5,2.0,12.0,85,0.12,,,0.04,47,Wunderground v.1.15,2013-02-19 18:32:00,
2013-02-19 13:38:00,59.0,54.5,30.05,NNW,336,6.0,12.0,85,0.08,,,0.04,51,Wunderground v.1.15,2013-02-19 18:38:00,
2013-02-19 13:42:00,58.7,54.5,30.05,NW,320,2.0,10.0,86,0.05,,,0.05,49,Wunderground v.1.15,2013-02-19 18:42:00,
2013-02-19 13:47:00,58.5,55.0,30.04,West,277,8.0,10.0,88,0.05,,,0.05,53,Wunderground v.1.15,2013-02-19 18:47:00,
2013-02-19 13:53:00,58.4,54.9,30.04,ENE,59,4.0,15.0,88,0.11,,,0.06,65,Wunderground v.1.15,2013-02-19 18:53:00,
2013-02-19 13:58:00,58.3,55.1,30.04,NNE,18,2.0,15.0,89,0.06,,,0.07,67,Wunderground v.1.15,2013-02-19 18:58:00,
2013-02-19 14:06:00,58.2,55.3,30.03,NNW,333,7.0,7.0,90,0.09,,,0.08,104,Wunderground v.1.15,2013-02-19 19:06:00,
2013-02-19 14:11:00,58.2,55.3,30.02,North,355,5.0,8.0,90,0.08,,,0.08,109,Wunderground v.1.15,2013-02-19 19:11:00,
2013-02-19 14:16:00,58.2,55.3,30.02,NNE,16,4.0,8.0,90,0.05,,,0.08,169,Wunderground v.1.15,2013-02-19 19:16:00,
2013-02-19 14:21:00,58.3,55.7,30.02,NW,318,5.0,8.0,91,0.00,,,0.08,132,Wunderground v.1.15,2013-02-19 19:21:00,
2013-02-19 14:26:00,58.3,55.7,30.02,WNW,299,1.0,4.0,91,0.00,,,0.08,100,Wunderground v.1.15,2013-02-19 19:26:00,
2013-02-19 14:31:00,58.4,55.8,30.02,North,351,5.0,12.0,91,0.00,,,0.08,160,Wunderground v.1.15,2013-02-19 19:31:00,
2013-02-19 14:36:00,58.5,55.6,30.02,West,278,5.0,5.0,90,0.00,,,0.09,121,Wunderground v.1.15,2013-02-19 19:36:00,
2013-02-19 14:41:00,58.7,56.1,30.01,NNW,329,4.0,8.0,91,0.00,,,0.09,141,Wunderground v.1.15,2013-02-19 19:41:00,
2013-02-19 14:46:00,58.8,55.9,30.01,NW,316,9.0,9.0,90,0.00,,,0.09,113,Wunderground v.1.15,2013-02-19 19:46:00,
2013-02-19 14:51:00,58.9,56.0,30.01,NNW,339,4.0,10.0,90,0.00,,,0.09,155,Wunderground v.1.15,2013-02-19 19:51:00,
2013-02-19 14:56:00,58.9,56.0,30.00,North,349,4.0,11.0,90,0.00,,,0.09,114,Wunderground v.1.15,2013-02-19 19:56:00,
2013-02-19 15:06:00,58.9,56.0,30.01,NNW,331,5.0,7.0,90,0.00,,,0.10,54,Wunderground v.1.15,2013-02-19 20:06:00,
2013-02-19 15:11:00,58.8,56.2,30.01,NNW,332,5.0,7.0,91,0.13,,,0.11,54,Wunderground v.1.15,2013-02-19 20:11:00,
2013-02-19 15:16:00,58.6,56.0,30.01,NE,34,2.0,8.0,91,0.15,,,0.13,76,Wunderground v.1.15,2013-02-19 20:16:00,
2013-02-19 15:21:00,58.5,56.2,30.00,North,355,3.0,6.0,92,0.17,,,0.14,120,Wunderground v.1.15,2013-02-19 20:21:00,
2013-02-19 15:26:00,58.4,56.4,30.01,NE,46,4.0,9.0,93,0.09,,,0.14,58,Wunderground v.1.15,2013-02-19 20:26:00,
2013-02-19 15:31:00,58.3,56.3,30.01,North,5,1.0,5.0,93,0.08,,,0.15,49,Wunderground v.1.15,2013-02-19 20:31:00,
2013-02-19 15:36:00,58.2,56.2,30.01,NNW,340,6.0,9.0,93,0.11,,,0.16,67,Wunderground v.1.15,2013-02-19 20:36:00,
2013-02-19 15:41:00,58.0,56.0,30.01,NNW,347,5.0,8.0,93,0.09,,,0.17,62,Wunderground v.1.15,2013-02-19 20:41:00,
2013-02-19 15:46:00,58.0,56.3,30.01,NW,310,2.0,8.0,94,0.12,,,0.18,44,Wunderground v.1.15,2013-02-19 20:46:00,
2013-02-19 15:51:00,57.8,56.1,30.00,North,5,5.0,8.0,94,0.08,,,0.18,32,Wunderground v.1.15,2013-02-19 20:51:00,
2013-02-19 15:56:00,57.8,56.1,30.00,NW,304,3.0,8.0,94,0.05,,,0.18,35,Wunderground v.1.15,2013-02-19 20:56:00,
2013-02-19 16:06:00,57.7,56.3,30.00,North,360,3.0,4.0,95,0.04,,,0.19,40,Wunderground v.1.15,2013-02-19 21:06:00,
2013-02-19 16:11:00,57.8,56.4,30.00,North,360,2.0,8.0,95,0.04,,,0.19,47,Wunderground v.1.15,2013-02-19 21:11:00,
2013-02-19 16:16:00,57.9,56.2,30.00,NNW,346,2.0,8.0,94,0.04,,,0.19,49,Wunderground v.1.15,2013-02-19 21:16:00,
2013-02-19 16:21:00,57.9,56.2,30.00,NNE,13,1.0,6.0,94,0.00,,,0.19,37,Wunderground v.1.15,2013-02-19 21:21:00,
2013-02-19 16:26:00,57.9,56.2,30.00,NNW,342,1.0,6.0,94,0.00,,,0.19,25,Wunderground v.1.15,2013-02-19 21:26:00,
2013-02-19 16:31:00,57.9,56.2,30.00,NNW,338,1.0,2.0,94,0.00,,,0.19,37,Wunderground v.1.15,2013-02-19 21:31:00,
2013-02-19 16:36:00,57.9,56.5,30.00,NNE,16,1.0,4.0,95,0.00,,,0.19,30,Wunderground v.1.15,2013-02-19 21:36:00,
2013-02-19 16:41:00,58.0,56.6,30.00,NNW,344,1.0,3.0,95,0.00,,,0.19,42,Wunderground v.1.15,2013-02-19 21:41:00,
2013-02-19 16:46:00,58.0,56.6,30.00,NE,56,3.0,3.0,95,0.00,,,0.19,32,Wunderground v.1.15,2013-02-19 21:46:00,
2013-02-19 16:51:00,58.0,56.6,30.00,NE,47,0.0,3.0,95,0.00,,,0.19,37,Wunderground v.1.15,2013-02-19 21:51:00,
2013-02-19 16:57:00,58.0,56.6,30.00,ENE,59,1.0,3.0,95,0.00,,,0.19,39,Wunderground v.1.15,2013-02-19 21:57:00,
2013-02-19 17:06:00,57.9,56.5,30.00,NE,34,1.0,3.0,95,0.00,,,0.19,23,Wunderground v.1.15,2013-02-19 22:06:00,
2013-02-19 17:11:00,57.8,56.4,30.00,North,360,3.0,3.0,95,0.00,,,0.19,25,Wunderground v.1.15,2013-02-19 22:11:00,
2013-02-19 17:16:00,57.7,56.3,30.00,ENE,68,4.0,6.0,95,0.00,,,0.19,19,Wunderground v.1.15,2013-02-19 22:16:00,
2013-02-19 17:21:00,57.7,56.3,30.00,ENE,62,1.0,2.0,95,0.00,,,0.19,16,Wunderground v.1.15,2013-02-19 22:21:00,
2013-02-19 17:26:00,57.7,56.3,30.01,NE,52,2.0,4.0,95,0.00,,,0.19,16,Wunderground v.1.15,2013-02-19 22:26:00,
2013-02-19 17:31:00,57.7,56.3,30.01,NE,44,2.0,3.0,95,0.00,,,0.19,12,Wunderground v.1.15,2013-02-19 22:31:00,
2013-02-19 17:36:00,57.6,56.2,30.01,NE,40,0.0,4.0,95,0.00,,,0.19,7,Wunderground v.1.15,2013-02-19 22:36:00,
2013-02-19 17:41:00,57.6,56.2,30.01,NNE,29,0.0,2.0,95,0.00,,,0.19,9,Wunderground v.1.15,2013-02-19 22:41:00,
2013-02-19 17:46:00,57.6,56.2,30.01,NE,49,2.0,4.0,95,0.00,,,0.19,11,Wunderground v.1.15,2013-02-19 22:46:00,
2013-02-19 17:51:00,57.5,56.1,30.01,ENE,68,3.0,4.0,95,0.00,,,0.19,11,Wunderground v.1.15,2013-02-19 22:51:00,
2013-02-19 17:56:00,57.5,55.8,30.01,NE,51,1.0,4.0,94,0.00,,,0.19,7,Wunderground v.1.15,2013-02-19 22:56:00,
2013-02-19 18:06:00,57.3,55.6,30.01,NNE,28,1.0,1.0,94,0.00,,,0.19,0,Wunderground v.1.15,2013-02-19 23:06:00,
2013-02-19 18:11:00,57.3,55.6,30.01,NE,46,1.0,4.0,94,0.00,,,0.20,0,Wunderground v.1.15,2013-02-19 23:11:00,
2013-02-19 18:16:00,57.3,55.9,30.02,North,351,1.0,2.0,95,0.00,,,0.20,0,Wunderground v.1.15,2013-02-19 23:16:00,
2013-02-19 18:21:00,57.3,55.9,30.02,North,355,0.0,4.0,95,0.00,,,0.20,0,Wunderground v.1.15,2013-02-19 23:21:00,
2013-02-19 18:26:00,57.3,55.9,30.02,NNE,12,1.0,2.0,95,0.00,,,0.20,0,Wunderground v.1.15,2013-02-19 23:26:00,
2013-02-19 18:31:00,57.3,55.9,30.02,NNE,32,1.0,5.0,95,0.00,,,0.20,0,Wunderground v.1.15,2013-02-19 23:31:00,
2013-02-19 18:36:00,57.3,55.9,30.02,North,5,2.0,3.0,95,0.00,,,0.20,0,Wunderground v.1.15,2013-02-19 23:36:00,
2013-02-19 18:41:00,57.3,55.9,30.02,NE,55,3.0,8.0,95,0.00,,,0.20,0,Wunderground v.1.15,2013-02-19 23:41:00,
2013-02-19 18:46:00,57.3,55.9,30.02,NNW,346,1.0,2.0,95,0.00,,,0.20,0,Wunderground v.1.15,2013-02-19 23:46:00,
2013-02-19 18:51:00,57.2,55.8,30.02,NNE,19,1.0,4.0,95,0.00,,,0.20,0,Wunderground v.1.15,2013-02-19 23:51:00,
2013-02-19 18:56:00,57.2,55.8,30.02,NNE,12,0.0,2.0,95,0.00,,,0.20,0,Wunderground v.1.15,2013-02-19 23:56:00,
2013-02-19 19:06:00,57.2,55.8,30.03,NE,36,2.0,2.0,95,0.00,,,0.20,0,Wunderground v.1.15,2013-02-20 00:06:00,
2013-02-19 19:11:00,57.2,55.8,30.03,NNE,32,1.0,3.0,95,0.00,,,0.20,0,Wunderground v.1.15,2013-02-20 00:11:00,
2013-02-19 19:16:00,57.2,55.8,30.03,NNW,344,2.0,4.0,95,0.00,,,0.20,0,Wunderground v.1.15,2013-02-20 00:16:00,
2013-02-19 19:21:00,57.1,55.7,30.03,NE,51,3.0,3.0,95,0.00,,,0.20,0,Wunderground v.1.15,2013-02-20 00:21:00,
2013-02-19 19:26:00,57.1,55.7,30.03,NE,42,3.0,4.0,95,0.00,,,0.20,0,Wunderground v.1.15,2013-02-20 00:26:00,
2013-02-19 19:32:00,57.1,55.7,30.03,NE,48,1.0,4.0,95,0.00,,,0.20,0,Wunderground v.1.15,2013-02-20 00:32:00,
2013-02-19 19:37:00,57.0,55.6,30.03,NE,44,0.0,4.0,95,0.00,,,0.20,0,Wunderground v.1.15,2013-02-20 00:37:00,
2013-02-19 19:42:00,56.9,55.5,30.03,NE,36,3.0,3.0,95,0.00,,,0.20,0,Wunderground v.1.15,2013-02-20 00:42:00,
2013-02-19 19:47:00,56.8,55.1,30.03,ENE,63,2.0,5.0,94,0.00,,,0.20,0,Wunderground v.1.15,2013-02-20 00:47:00,
2013-02-19 19:52:00,56.8,55.1,30.04,ENE,75,2.0,5.0,94,0.00,,,0.20,0,Wunderground v.1.15,2013-02-20 00:52:00,
2013-02-19 19:57:00,56.7,55.0,30.04,NE,51,2.0,5.0,94,0.00,,,0.20,0,Wunderground v.1.15,2013-02-20 00:57:00,
2013-02-19 20:06:00,56.6,54.9,30.04,NE,49,2.0,2.0,94,0.00,,,0.20,0,Wunderground v.1.15,2013-02-20 01:06:00,
2013-02-19 20:11:00,56.5,54.8,30.04,ENE,58,2.0,5.0,94,0.00,,,0.20,0,Wunderground v.1.15,2013-02-20 01:11:00,
2013-02-19 20:16:00,56.3,54.3,30.04,NW,308,0.0,2.0,93,0.00,,,0.20,0,Wunderground v.1.15,2013-02-20 01:16:00,
2013-02-19 20:21:00,56.2,54.2,30.04,ENE,59,1.0,4.0,93,0.00,,,0.20,0,Wunderground v.1.15,2013-02-20 01:21:00,
2013-02-19 20:27:00,56.0,54.0,30.05,NE,54,0.0,2.0,93,0.00,,,0.20,0,Wunderground v.1.15,2013-02-20 01:27:00,
2013-02-19 20:32:00,55.9,53.9,30.05,NNE,24,1.0,3.0,93,0.00,,,0.20,0,Wunderground v.1.15,2013-02-20 01:32:00,
2013-02-19 20:37:00,55.8,53.8,30.05,NE,46,2.0,3.0,93,0.00,,,0.20,0,Wunderground v.1.15,2013-02-20 01:37:00,
2013-02-19 20:42:00,55.7,53.4,30.05,NE,40,1.0,4.0,92,0.00,,,0.20,0,Wunderground v.1.15,2013-02-20 01:42:00,
2013-02-19 20:47:00,55.6,53.3,30.05,ENE,63,2.0,2.0,92,0.00,,,0.20,0,Wunderground v.1.15,2013-02-20 01:47:00,
2013-02-19 20:52:00,55.5,53.2,30.05,NE,34,1.0,4.0,92,0.00,,,0.20,0,Wunderground v.1.15,2013-02-20 01:52:00,
2013-02-19 20:57:00,55.4,53.4,30.05,ENE,57,3.0,3.0,93,0.00,,,0.20,0,Wunderground v.1.15,2013-02-20 01:57:00,
2013-02-19 21:07:00,55.2,53.2,30.05,NE,55,1.0,2.0,93,0.00,,,0.20,0,Wunderground v.1.15,2013-02-20 02:07:00,
2013-02-19 21:12:00,55.0,53.0,30.05,NE,54,1.0,1.0,93,0.00,,,0.20,0,Wunderground v.1.15,2013-02-20 02:12:00,
2013-02-19 21:17:00,54.9,52.9,30.05,NE,54,0.0,2.0,93,0.00,,,0.20,0,Wunderground v.1.15,2013-02-20 02:17:00,
2013-02-19 21:22:00,54.7,53.0,30.05,NE,54,0.0,0.0,94,0.00,,,0.20,0,Wunderground v.1.15,2013-02-20 02:22:00,
2013-02-19 21:27:00,54.5,52.5,30.05,NE,54,0.0,0.0,93,0.00,,,0.20,0,Wunderground v.1.15,2013-02-20 02:27:00,
2013-02-19 21:32:00,54.4,52.7,30.05,NE,54,0.0,2.0,94,0.00,,,0.20,0,Wunderground v.1.15,2013-02-20 02:32:00,
2013-02-19 21:37:00,54.2,52.5,30.05,NE,54,1.0,3.0,94,0.00,,,0.20,0,Wunderground v.1.15,2013-02-20 02:37:00,
2013-02-19 21:42:00,54.0,52.3,30.05,NE,54,0.0,1.0,94,0.00,,,0.20,0,Wunderground v.1.15,2013-02-20 02:42:00,
2013-02-19 21:47:00,53.8,52.1,30.05,NE,54,0.0,1.0,94,0.00,,,0.20,0,Wunderground v.1.15,2013-02-20 02:47:00,
2013-02-19 21:52:00,53.7,52.0,30.05,NE,54,1.0,1.0,94,0.00,,,0.20,0,Wunderground v.1.15,2013-02-20 02:52:00,
2013-02-19 21:57:00,53.6,51.9,30.05,NE,54,0.0,1.0,94,0.00,,,0.20,0,Wunderground v.1.15,2013-02-20 02:57:00,
2013-02-19 22:02:00,53.4,51.7,30.06,NE,53,0.0,1.0,94,0.00,,,0.20,0,Wunderground v.1.15,2013-02-20 03:02:00,
2013-02-19 22:07:00,53.4,52.0,30.06,NE,53,2.0,2.0,95,0.00,,,0.20,0,Wunderground v.1.15,2013-02-20 03:07:00,
2013-02-19 22:12:00,53.3,51.9,30.06,NE,53,0.0,1.0,95,0.00,,,0.20,0,Wunderground v.1.15,2013-02-20 03:12:00,
2013-02-19 22:17:00,53.2,51.8,30.06,NE,53,0.0,2.0,95,0.00,,,0.20,0,Wunderground v.1.15,2013-02-20 03:17:00,
2013-02-19 22:22:00,53.1,51.7,30.06,NE,53,1.0,1.0,95,0.00,,,0.20,0,Wunderground v.1.15,2013-02-20 03:22:00,
2013-02-19 22:27:00,53.1,51.7,30.06,NNE,22,1.0,3.0,95,0.00,,,0.20,0,Wunderground v.1.15,2013-02-20 03:27:00,
2013-02-19 22:32:00,53.0,51.6,30.06,ENE,57,1.0,2.0,95,0.00,,,0.20,0,Wunderground v.1.15,2013-02-20 03:32:00,
2013-02-19 22:37:00,53.0,51.6,30.06,NE,54,1.0,3.0,95,0.00,,,0.20,0,Wunderground v.1.15,2013-02-20 03:37:00,
2013-02-19 22:42:00,52.9,51.5,30.06,NNE,17,2.0,2.0,95,0.00,,,0.20,0,Wunderground v.1.15,2013-02-20 03:42:00,
2013-02-19 22:47:00,52.8,51.4,30.06,NNE,16,0.0,5.0,95,0.00,,,0.20,0,Wunderground v.1.15,2013-02-20 03:47:00,
2013-02-19 22:52:00,52.7,51.3,30.06,NNE,20,0.0,2.0,95,0.00,,,0.20,0,Wunderground v.1.15,2013-02-20 03:52:00,
2013-02-19 22:57:00,52.7,51.3,30.05,NE,36,2.0,3.0,95,0.00,,,0.20,0,Wunderground v.1.15,2013-02-20 03:57:00,
2013-02-19 23:06:00,52.5,51.1,30.05,North,9,2.0,2.0,95,0.00,,,0.20,0,Wunderground v.1.15,2013-02-20 04:06:00,
2013-02-19 23:11:00,52.4,51.0,30.05,NE,54,2.0,3.0,95,0.00,,,0.20,0,Wunderground v.1.15,2013-02-20 04:11:00,
2013-02-19 23:16:00,52.4,51.0,30.06,NE,52,0.0,4.0,95,0.00,,,0.20,0,Wunderground v.1.15,2013-02-20 04:16:00,
2013-02-19 23:21:00,52.3,50.9,30.06,NE,38,2.0,3.0,95,0.00,,,0.20,0,Wunderground v.1.15,2013-02-20 04:21:00,
2013-02-19 23:26:00,52.2,50.8,30.06,NNE,26,1.0,4.0,95,0.00,,,0.20,0,Wunderground v.1.15,2013-02-20 04:26:00,
2013-02-19 23:31:00,52.1,50.7,30.06,NE,51,2.0,4.0,95,0.00,,,0.20,0,Wunderground v.1.15,2013-02-20 04:31:00,
2013-02-19 23:36:00,52.1,50.7,30.06,ENE,78,2.0,4.0,95,0.00,,,0.20,0,Wunderground v.1.15,2013-02-20 04:36:00,
2013-02-19 23:41:00,52.0,50.6,30.06,ENE,74,1.0,3.0,95,0.00,,,0.20,0,Wunderground v.1.15,2013-02-20 04:41:00,
2013-02-19 23:46:00,51.9,50.5,30.06,NE,38,3.0,4.0,95,0.00,,,0.20,0,Wunderground v.1.15,2013-02-20 04:46:00,
2013-02-19 23:52:00,51.9,50.5,30.06,NE,34,2.0,3.0,95,0.00,,,0.20,0,Wunderground v.1.15,2013-02-20 04:52:00,
2013-02-19 23:57:00,51.8,50.4,30.07,NE,42,2.0,4.0,95,0.00,,,0.20,0,Wunderground v.1.15,2013-02-20 04:57:00,